sensor_id;sensor_type;location;lat;lon;timestamp;P1;durP1;ratioP1;P2;durP2;ratioP2
61638;SDS011;47544;52.484;4.658;2024-01-11T00:00:04;29.23;;;16.45;;
61638;SDS011;47544;52.484;4.658;2024-01-11T00:00:15;28.73;;;16.27;;
61638;SDS011;47544;52.484;4.658;2024-01-11T00:00:26;28.20;;;15.70;;
61638;SDS011;47544;52.484;4.658;2024-01-11T00:00:37;28.70;;;15.60;;
61638;SDS011;47544;52.484;4.658;2024-01-11T00:00:48;29.67;;;16.02;;
61638;SDS011;47544;52.484;4.658;2024-01-11T00:01:00;31.35;;;16.63;;
61638;SDS011;47544;52.484;4.658;2024-01-11T00:01:11;31.10;;;16.70;;
61638;SDS011;47544;52.484;4.658;2024-01-11T00:01:22;29.83;;;16.13;;
61638;SDS011;47544;52.484;4.658;2024-01-11T00:01:36;28.45;;;15.75;;
61638;SDS011;47544;52.484;4.658;2024-01-11T00:01:47;28.80;;;15.57;;
61638;SDS011;47544;52.484;4.658;2024-01-11T00:01:58;29.33;;;15.88;;
61638;SDS011;47544;52.484;4.658;2024-01-11T00:02:09;29.52;;;15.95;;
61638;SDS011;47544;52.484;4.658;2024-01-11T00:02:20;31.50;;;16.40;;
61638;SDS011;47544;52.484;4.658;2024-01-11T00:02:31;31.17;;;15.88;;
61638;SDS011;47544;52.484;4.658;2024-01-11T00:02:42;31.88;;;15.98;;
61638;SDS011;47544;52.484;4.658;2024-01-11T00:02:54;29.63;;;15.85;;
61638;SDS011;47544;52.484;4.658;2024-01-11T00:03:05;28.95;;;15.80;;
61638;SDS011;47544;52.484;4.658;2024-01-11T00:03:16;28.25;;;15.35;;
61638;SDS011;47544;52.484;4.658;2024-01-11T00:03:28;28.42;;;14.98;;
61638;SDS011;47544;52.484;4.658;2024-01-11T00:03:39;28.10;;;14.57;;
61638;SDS011;47544;52.484;4.658;2024-01-11T00:03:50;28.58;;;14.75;;
61638;SDS011;47544;52.484;4.658;2024-01-11T00:04:01;28.23;;;15.03;;
61638;SDS011;47544;52.484;4.658;2024-01-11T00:04:14;31.05;;;15.98;;
61638;SDS011;47544;52.484;4.658;2024-01-11T00:04:25;32.30;;;16.60;;
61638;SDS011;47544;52.484;4.658;2024-01-11T00:04:36;31.08;;;16.10;;
61638;SDS011;47544;52.484;4.658;2024-01-11T00:04:50;31.02;;;15.95;;
61638;SDS011;47544;52.484;4.658;2024-01-11T00:05:01;30.95;;;15.90;;
61638;SDS011;47544;52.484;4.658;2024-01-11T00:05:13;31.10;;;16.05;;
61638;SDS011;47544;52.484;4.658;2024-01-11T00:05:24;31.13;;;16.05;;
61638;SDS011;47544;52.484;4.658;2024-01-11T00:05:35;31.13;;;16.30;;
61638;SDS011;47544;52.484;4.658;2024-01-11T00:05:46;30.77;;;16.77;;
61638;SDS011;47544;52.484;4.658;2024-01-11T00:05:57;29.95;;;16.65;;
61638;SDS011;47544;52.484;4.658;2024-01-11T00:06:08;29.63;;;16.88;;
61638;SDS011;47544;52.484;4.658;2024-01-11T00:06:19;28.70;;;16.13;;
61638;SDS011;47544;52.484;4.658;2024-01-11T00:06:30;28.67;;;15.55;;
61638;SDS011;47544;52.484;4.658;2024-01-11T00:06:42;29.25;;;15.38;;
61638;SDS011;47544;52.484;4.658;2024-01-11T00:06:53;30.92;;;16.15;;
61638;SDS011;47544;52.484;4.658;2024-01-11T00:07:04;29.85;;;16.17;;
61638;SDS011;47544;52.484;4.658;2024-01-11T00:07:15;30.33;;;16.67;;
61638;SDS011;47544;52.484;4.658;2024-01-11T00:07:26;30.52;;;16.65;;
61638;SDS011;47544;52.484;4.658;2024-01-11T00:07:37;30.25;;;15.82;;
61638;SDS011;47544;52.484;4.658;2024-01-11T00:07:48;29.38;;;15.13;;
61638;SDS011;47544;52.484;4.658;2024-01-11T00:07:59;28.30;;;15.18;;
61638;SDS011;47544;52.484;4.658;2024-01-11T00:08:10;27.83;;;15.67;;
61638;SDS011;47544;52.484;4.658;2024-01-11T00:08:22;30.20;;;16.17;;
61638;SDS011;47544;52.484;4.658;2024-01-11T00:08:35;32.22;;;16.65;;
61638;SDS011;47544;52.484;4.658;2024-01-11T00:08:48;31.38;;;16.77;;
61638;SDS011;47544;52.484;4.658;2024-01-11T00:08:59;30.63;;;16.65;;
61638;SDS011;47544;52.484;4.658;2024-01-11T00:09:10;30.73;;;16.42;;
61638;SDS011;47544;52.484;4.658;2024-01-11T00:09:21;30.67;;;16.17;;
61638;SDS011;47544;52.484;4.658;2024-01-11T00:09:32;30.50;;;16.02;;
61638;SDS011;47544;52.484;4.658;2024-01-11T00:09:43;31.77;;;16.10;;
61638;SDS011;47544;52.484;4.658;2024-01-11T00:09:54;32.25;;;16.48;;
61638;SDS011;47544;52.484;4.658;2024-01-11T00:10:05;32.20;;;16.55;;
61638;SDS011;47544;52.484;4.658;2024-01-11T00:10:18;31.48;;;16.65;;
61638;SDS011;47544;52.484;4.658;2024-01-11T00:10:28;32.30;;;17.05;;
61638;SDS011;47544;52.484;4.658;2024-01-11T00:10:39;31.92;;;17.13;;
61638;SDS011;47544;52.484;4.658;2024-01-11T00:10:50;31.60;;;17.17;;
61638;SDS011;47544;52.484;4.658;2024-01-11T00:11:01;31.27;;;16.85;;
61638;SDS011;47544;52.484;4.658;2024-01-11T00:11:12;31.48;;;16.60;;
61638;SDS011;47544;52.484;4.658;2024-01-11T00:11:23;30.88;;;16.42;;
61638;SDS011;47544;52.484;4.658;2024-01-11T00:11:34;31.52;;;16.83;;
61638;SDS011;47544;52.484;4.658;2024-01-11T00:11:45;31.05;;;16.98;;
61638;SDS011;47544;52.484;4.658;2024-01-11T00:11:57;29.65;;;16.63;;
61638;SDS011;47544;52.484;4.658;2024-01-11T00:12:08;28.80;;;15.93;;
61638;SDS011;47544;52.484;4.658;2024-01-11T00:12:19;29.05;;;15.82;;
61638;SDS011;47544;52.484;4.658;2024-01-11T00:12:30;30.83;;;16.23;;
61638;SDS011;47544;52.484;4.658;2024-01-11T00:12:42;30.98;;;16.23;;
61638;SDS011;47544;52.484;4.658;2024-01-11T00:12:53;30.38;;;16.15;;
61638;SDS011;47544;52.484;4.658;2024-01-11T00:13:04;29.60;;;16.27;;
61638;SDS011;47544;52.484;4.658;2024-01-11T00:13:15;29.75;;;16.38;;
61638;SDS011;47544;52.484;4.658;2024-01-11T00:13:26;29.42;;;16.52;;
61638;SDS011;47544;52.484;4.658;2024-01-11T00:13:37;30.02;;;16.75;;
61638;SDS011;47544;52.484;4.658;2024-01-11T00:13:48;30.33;;;16.73;;
61638;SDS011;47544;52.484;4.658;2024-01-11T00:14:00;30.58;;;16.55;;
61638;SDS011;47544;52.484;4.658;2024-01-11T00:14:11;30.27;;;15.98;;
61638;SDS011;47544;52.484;4.658;2024-01-11T00:14:22;29.23;;;15.35;;
61638;SDS011;47544;52.484;4.658;2024-01-11T00:14:33;30.10;;;15.45;;
61638;SDS011;47544;52.484;4.658;2024-01-11T00:14:44;30.10;;;15.68;;
61638;SDS011;47544;52.484;4.658;2024-01-11T00:14:55;30.15;;;15.95;;
61638;SDS011;47544;52.484;4.658;2024-01-11T00:15:06;28.63;;;15.93;;
61638;SDS011;47544;52.484;4.658;2024-01-11T00:15:17;28.92;;;15.90;;
61638;SDS011;47544;52.484;4.658;2024-01-11T00:15:28;28.67;;;16.05;;
61638;SDS011;47544;52.484;4.658;2024-01-11T00:15:39;29.55;;;15.93;;
61638;SDS011;47544;52.484;4.658;2024-01-11T00:15:50;30.58;;;16.25;;
61638;SDS011;47544;52.484;4.658;2024-01-11T00:16:02;33.20;;;16.80;;
61638;SDS011;47544;52.484;4.658;2024-01-11T00:16:15;33.13;;;16.98;;
61638;SDS011;47544;52.484;4.658;2024-01-11T00:16:28;32.83;;;17.05;;
61638;SDS011;47544;52.484;4.658;2024-01-11T00:16:38;33.45;;;17.23;;
61638;SDS011;47544;52.484;4.658;2024-01-11T00:16:49;32.28;;;17.23;;
61638;SDS011;47544;52.484;4.658;2024-01-11T00:17:00;31.95;;;17.15;;
61638;SDS011;47544;52.484;4.658;2024-01-11T00:17:11;31.27;;;16.65;;
61638;SDS011;47544;52.484;4.658;2024-01-11T00:17:22;31.98;;;16.80;;
61638;SDS011;47544;52.484;4.658;2024-01-11T00:17:33;31.70;;;16.17;;
61638;SDS011;47544;52.484;4.658;2024-01-11T00:17:45;31.98;;;16.13;;
61638;SDS011;47544;52.484;4.658;2024-01-11T00:17:56;32.15;;;16.30;;
61638;SDS011;47544;52.484;4.658;2024-01-11T00:18:07;32.63;;;16.92;;
61638;SDS011;47544;52.484;4.658;2024-01-11T00:18:18;31.90;;;17.02;;
61638;SDS011;47544;52.484;4.658;2024-01-11T00:18:31;32.22;;;17.05;;
61638;SDS011;47544;52.484;4.658;2024-01-11T00:18:42;31.58;;;16.17;;
61638;SDS011;47544;52.484;4.658;2024-01-11T00:18:53;31.40;;;16.27;;
61638;SDS011;47544;52.484;4.658;2024-01-11T00:19:03;29.83;;;16.25;;
61638;SDS011;47544;52.484;4.658;2024-01-11T00:19:14;30.48;;;16.77;;
61638;SDS011;47544;52.484;4.658;2024-01-11T00:19:26;32.30;;;17.00;;
61638;SDS011;47544;52.484;4.658;2024-01-11T00:19:37;32.95;;;17.10;;
61638;SDS011;47544;52.484;4.658;2024-01-11T00:19:48;33.33;;;17.25;;
61638;SDS011;47544;52.484;4.658;2024-01-11T00:20:01;33.65;;;17.40;;
61638;SDS011;47544;52.484;4.658;2024-01-11T00:20:12;31.80;;;16.83;;
61638;SDS011;47544;52.484;4.658;2024-01-11T00:20:23;32.13;;;17.38;;
61638;SDS011;47544;52.484;4.658;2024-01-11T00:20:34;31.25;;;17.27;;
61638;SDS011;47544;52.484;4.658;2024-01-11T00:20:45;30.50;;;17.02;;
61638;SDS011;47544;52.484;4.658;2024-01-11T00:20:56;31.27;;;16.75;;
61638;SDS011;47544;52.484;4.658;2024-01-11T00:21:08;32.90;;;16.90;;
61638;SDS011;47544;52.484;4.658;2024-01-11T00:21:19;33.80;;;16.85;;
61638;SDS011;47544;52.484;4.658;2024-01-11T00:21:30;32.70;;;16.60;;
61638;SDS011;47544;52.484;4.658;2024-01-11T00:21:41;32.47;;;16.73;;
61638;SDS011;47544;52.484;4.658;2024-01-11T00:21:52;31.92;;;17.13;;
61638;SDS011;47544;52.484;4.658;2024-01-11T00:22:03;32.10;;;16.95;;
61638;SDS011;47544;52.484;4.658;2024-01-11T00:22:14;31.00;;;16.70;;
61638;SDS011;47544;52.484;4.658;2024-01-11T00:22:25;31.05;;;16.10;;
61638;SDS011;47544;52.484;4.658;2024-01-11T00:22:36;30.80;;;15.57;;
61638;SDS011;47544;52.484;4.658;2024-01-11T00:22:49;33.15;;;16.17;;
61638;SDS011;47544;52.484;4.658;2024-01-11T00:23:00;32.63;;;16.45;;
61638;SDS011;47544;52.484;4.658;2024-01-11T00:23:12;32.13;;;16.25;;
61638;SDS011;47544;52.484;4.658;2024-01-11T00:23:23;32.90;;;16.67;;
61638;SDS011;47544;52.484;4.658;2024-01-11T00:23:34;33.28;;;17.15;;
61638;SDS011;47544;52.484;4.658;2024-01-11T00:23:45;32.35;;;17.45;;
61638;SDS011;47544;52.484;4.658;2024-01-11T00:23:56;33.22;;;16.88;;
61638;SDS011;47544;52.484;4.658;2024-01-11T00:24:07;32.38;;;16.75;;
61638;SDS011;47544;52.484;4.658;2024-01-11T00:24:18;32.53;;;16.97;;
61638;SDS011;47544;52.484;4.658;2024-01-11T00:24:30;32.90;;;17.65;;
61638;SDS011;47544;52.484;4.658;2024-01-11T00:24:41;33.42;;;18.05;;
61638;SDS011;47544;52.484;4.658;2024-01-11T00:24:53;32.33;;;17.67;;
61638;SDS011;47544;52.484;4.658;2024-01-11T00:25:04;31.85;;;17.38;;
61638;SDS011;47544;52.484;4.658;2024-01-11T00:25:15;32.42;;;17.52;;
61638;SDS011;47544;52.484;4.658;2024-01-11T00:25:26;32.63;;;17.45;;
61638;SDS011;47544;52.484;4.658;2024-01-11T00:25:37;32.65;;;17.38;;
61638;SDS011;47544;52.484;4.658;2024-01-11T00:25:48;32.33;;;17.33;;
61638;SDS011;47544;52.484;4.658;2024-01-11T00:25:59;31.80;;;16.95;;
61638;SDS011;47544;52.484;4.658;2024-01-11T00:26:11;31.17;;;16.92;;
61638;SDS011;47544;52.484;4.658;2024-01-11T00:26:22;31.17;;;16.60;;
61638;SDS011;47544;52.484;4.658;2024-01-11T00:26:33;31.30;;;16.67;;
61638;SDS011;47544;52.484;4.658;2024-01-11T00:26:44;31.75;;;17.25;;
61638;SDS011;47544;52.484;4.658;2024-01-11T00:26:55;32.50;;;17.73;;
61638;SDS011;47544;52.484;4.658;2024-01-11T00:27:07;33.90;;;17.52;;
61638;SDS011;47544;52.484;4.658;2024-01-11T00:27:18;33.67;;;17.27;;
61638;SDS011;47544;52.484;4.658;2024-01-11T00:27:30;32.60;;;16.95;;
61638;SDS011;47544;52.484;4.658;2024-01-11T00:27:41;33.00;;;16.80;;
61638;SDS011;47544;52.484;4.658;2024-01-11T00:27:52;31.92;;;16.52;;
61638;SDS011;47544;52.484;4.658;2024-01-11T00:28:03;32.38;;;16.95;;
61638;SDS011;47544;52.484;4.658;2024-01-11T00:28:14;31.48;;;16.60;;
61638;SDS011;47544;52.484;4.658;2024-01-11T00:28:25;33.35;;;17.23;;
61638;SDS011;47544;52.484;4.658;2024-01-11T00:28:36;34.47;;;17.58;;
61638;SDS011;47544;52.484;4.658;2024-01-11T00:28:47;34.83;;;17.80;;
61638;SDS011;47544;52.484;4.658;2024-01-11T00:28:59;33.20;;;16.77;;
61638;SDS011;47544;52.484;4.658;2024-01-11T00:29:10;33.25;;;16.38;;
61638;SDS011;47544;52.484;4.658;2024-01-11T00:29:21;33.00;;;16.35;;
61638;SDS011;47544;52.484;4.658;2024-01-11T00:29:32;33.70;;;16.60;;
61638;SDS011;47544;52.484;4.658;2024-01-11T00:29:43;32.92;;;16.58;;
61638;SDS011;47544;52.484;4.658;2024-01-11T00:29:54;32.97;;;17.15;;
61638;SDS011;47544;52.484;4.658;2024-01-11T00:30:05;33.28;;;17.60;;
61638;SDS011;47544;52.484;4.658;2024-01-11T00:30:16;32.38;;;17.58;;
61638;SDS011;47544;52.484;4.658;2024-01-11T00:30:27;31.33;;;17.50;;
61638;SDS011;47544;52.484;4.658;2024-01-11T00:30:38;32.88;;;17.38;;
61638;SDS011;47544;52.484;4.658;2024-01-11T00:30:50;33.72;;;17.20;;
61638;SDS011;47544;52.484;4.658;2024-01-11T00:31:02;32.25;;;16.85;;
61638;SDS011;47544;52.484;4.658;2024-01-11T00:31:13;30.23;;;16.40;;
61638;SDS011;47544;52.484;4.658;2024-01-11T00:31:24;31.17;;;16.63;;
61638;SDS011;47544;52.484;4.658;2024-01-11T00:31:35;32.00;;;17.42;;
61638;SDS011;47544;52.484;4.658;2024-01-11T00:31:46;32.17;;;18.05;;
61638;SDS011;47544;52.484;4.658;2024-01-11T00:31:57;33.05;;;17.85;;
61638;SDS011;47544;52.484;4.658;2024-01-11T00:32:08;32.47;;;17.02;;
61638;SDS011;47544;52.484;4.658;2024-01-11T00:32:19;33.13;;;17.27;;
61638;SDS011;47544;52.484;4.658;2024-01-11T00:32:31;32.90;;;17.30;;
61638;SDS011;47544;52.484;4.658;2024-01-11T00:32:42;34.22;;;18.23;;
61638;SDS011;47544;52.484;4.658;2024-01-11T00:32:53;33.85;;;18.00;;
61638;SDS011;47544;52.484;4.658;2024-01-11T00:33:05;34.75;;;18.70;;
61638;SDS011;47544;52.484;4.658;2024-01-11T00:33:17;33.90;;;18.42;;
61638;SDS011;47544;52.484;4.658;2024-01-11T00:33:31;32.78;;;17.67;;
61638;SDS011;47544;52.484;4.658;2024-01-11T00:33:42;32.60;;;17.73;;
61638;SDS011;47544;52.484;4.658;2024-01-11T00:33:53;33.72;;;18.17;;
61638;SDS011;47544;52.484;4.658;2024-01-11T00:34:04;33.77;;;18.03;;
61638;SDS011;47544;52.484;4.658;2024-01-11T00:34:15;33.80;;;17.95;;
61638;SDS011;47544;52.484;4.658;2024-01-11T00:34:26;35.22;;;18.45;;
61638;SDS011;47544;52.484;4.658;2024-01-11T00:34:37;34.83;;;18.23;;
61638;SDS011;47544;52.484;4.658;2024-01-11T00:34:49;34.53;;;18.05;;
61638;SDS011;47544;52.484;4.658;2024-01-11T00:35:00;32.80;;;17.90;;
61638;SDS011;47544;52.484;4.658;2024-01-11T00:35:11;33.78;;;18.30;;
61638;SDS011;47544;52.484;4.658;2024-01-11T00:35:22;33.33;;;18.35;;
61638;SDS011;47544;52.484;4.658;2024-01-11T00:35:33;33.83;;;18.52;;
61638;SDS011;47544;52.484;4.658;2024-01-11T00:35:44;33.50;;;17.47;;
61638;SDS011;47544;52.484;4.658;2024-01-11T00:35:55;28.48;;;14.48;;
61638;SDS011;47544;52.484;4.658;2024-01-11T00:36:06;26.10;;;13.50;;
61638;SDS011;47544;52.484;4.658;2024-01-11T00:36:17;28.38;;;14.38;;
61638;SDS011;47544;52.484;4.658;2024-01-11T00:36:29;32.97;;;16.95;;
61638;SDS011;47544;52.484;4.658;2024-01-11T00:36:41;32.90;;;17.77;;
61638;SDS011;47544;52.484;4.658;2024-01-11T00:36:52;31.30;;;17.35;;
61638;SDS011;47544;52.484;4.658;2024-01-11T00:37:03;33.05;;;18.10;;
61638;SDS011;47544;52.484;4.658;2024-01-11T00:37:14;32.60;;;17.70;;
61638;SDS011;47544;52.484;4.658;2024-01-11T00:37:26;33.63;;;17.90;;
61638;SDS011;47544;52.484;4.658;2024-01-11T00:37:37;33.80;;;18.13;;
61638;SDS011;47544;52.484;4.658;2024-01-11T00:37:48;33.78;;;17.70;;
61638;SDS011;47544;52.484;4.658;2024-01-11T00:37:59;33.53;;;17.08;;
61638;SDS011;47544;52.484;4.658;2024-01-11T00:38:11;33.78;;;17.50;;
61638;SDS011;47544;52.484;4.658;2024-01-11T00:38:22;33.67;;;18.02;;
61638;SDS011;47544;52.484;4.658;2024-01-11T00:38:33;33.90;;;18.55;;
61638;SDS011;47544;52.484;4.658;2024-01-11T00:38:45;34.45;;;18.70;;
61638;SDS011;47544;52.484;4.658;2024-01-11T00:38:56;34.67;;;18.67;;
61638;SDS011;47544;52.484;4.658;2024-01-11T00:39:07;33.60;;;18.55;;
61638;SDS011;47544;52.484;4.658;2024-01-11T00:39:18;33.70;;;18.52;;
61638;SDS011;47544;52.484;4.658;2024-01-11T00:39:29;34.00;;;18.90;;
61638;SDS011;47544;52.484;4.658;2024-01-11T00:39:40;35.47;;;19.20;;
61638;SDS011;47544;52.484;4.658;2024-01-11T00:39:52;34.45;;;18.42;;
61638;SDS011;47544;52.484;4.658;2024-01-11T00:40:03;33.92;;;17.90;;
61638;SDS011;47544;52.484;4.658;2024-01-11T00:40:15;34.60;;;17.98;;
61638;SDS011;47544;52.484;4.658;2024-01-11T00:40:26;35.33;;;18.20;;
61638;SDS011;47544;52.484;4.658;2024-01-11T00:40:37;34.55;;;18.23;;
61638;SDS011;47544;52.484;4.658;2024-01-11T00:40:48;33.67;;;18.15;;
61638;SDS011;47544;52.484;4.658;2024-01-11T00:40:59;33.78;;;18.33;;
61638;SDS011;47544;52.484;4.658;2024-01-11T00:41:10;35.45;;;18.42;;
61638;SDS011;47544;52.484;4.658;2024-01-11T00:41:22;36.63;;;18.70;;
61638;SDS011;47544;52.484;4.658;2024-01-11T00:41:33;34.22;;;17.20;;
61638;SDS011;47544;52.484;4.658;2024-01-11T00:41:44;32.13;;;16.63;;
61638;SDS011;47544;52.484;4.658;2024-01-11T00:41:55;31.63;;;16.65;;
61638;SDS011;47544;52.484;4.658;2024-01-11T00:42:06;34.47;;;18.33;;
61638;SDS011;47544;52.484;4.658;2024-01-11T00:42:17;33.72;;;17.65;;
61638;SDS011;47544;52.484;4.658;2024-01-11T00:42:28;32.20;;;16.65;;
61638;SDS011;47544;52.484;4.658;2024-01-11T00:42:39;31.88;;;16.45;;
61638;SDS011;47544;52.484;4.658;2024-01-11T00:42:50;31.40;;;16.45;;
61638;SDS011;47544;52.484;4.658;2024-01-11T00:43:01;31.88;;;17.05;;
61638;SDS011;47544;52.484;4.658;2024-01-11T00:43:13;30.13;;;17.05;;
61638;SDS011;47544;52.484;4.658;2024-01-11T00:43:24;31.90;;;17.55;;
61638;SDS011;47544;52.484;4.658;2024-01-11T00:43:35;32.00;;;17.85;;
61638;SDS011;47544;52.484;4.658;2024-01-11T00:43:46;31.90;;;17.73;;
61638;SDS011;47544;52.484;4.658;2024-01-11T00:43:57;31.75;;;17.30;;
61638;SDS011;47544;52.484;4.658;2024-01-11T00:44:08;32.63;;;17.05;;
61638;SDS011;47544;52.484;4.658;2024-01-11T00:44:20;33.83;;;17.20;;
61638;SDS011;47544;52.484;4.658;2024-01-11T00:44:31;33.22;;;17.05;;
61638;SDS011;47544;52.484;4.658;2024-01-11T00:44:42;32.03;;;16.55;;
61638;SDS011;47544;52.484;4.658;2024-01-11T00:44:55;32.42;;;17.10;;
61638;SDS011;47544;52.484;4.658;2024-01-11T00:45:06;32.13;;;17.08;;
61638;SDS011;47544;52.484;4.658;2024-01-11T00:45:17;31.17;;;16.70;;
61638;SDS011;47544;52.484;4.658;2024-01-11T00:45:29;28.55;;;15.25;;
61638;SDS011;47544;52.484;4.658;2024-01-11T00:45:40;28.42;;;15.27;;
61638;SDS011;47544;52.484;4.658;2024-01-11T00:45:51;28.95;;;15.15;;
61638;SDS011;47544;52.484;4.658;2024-01-11T00:46:02;31.38;;;15.52;;
61638;SDS011;47544;52.484;4.658;2024-01-11T00:46:13;31.25;;;15.23;;
61638;SDS011;47544;52.484;4.658;2024-01-11T00:46:24;30.92;;;16.10;;
61638;SDS011;47544;52.484;4.658;2024-01-11T00:46:36;30.23;;;16.08;;
61638;SDS011;47544;52.484;4.658;2024-01-11T00:46:48;30.00;;;15.90;;
61638;SDS011;47544;52.484;4.658;2024-01-11T00:46:59;30.02;;;15.93;;
61638;SDS011;47544;52.484;4.658;2024-01-11T00:47:10;30.63;;;16.60;;
61638;SDS011;47544;52.484;4.658;2024-01-11T00:47:21;30.58;;;16.20;;
61638;SDS011;47544;52.484;4.658;2024-01-11T00:47:32;28.10;;;14.98;;
61638;SDS011;47544;52.484;4.658;2024-01-11T00:47:43;26.15;;;14.07;;
61638;SDS011;47544;52.484;4.658;2024-01-11T00:47:54;25.58;;;13.52;;
61638;SDS011;47544;52.484;4.658;2024-01-11T00:48:05;28.00;;;14.07;;
61638;SDS011;47544;52.484;4.658;2024-01-11T00:48:17;29.67;;;16.13;;
61638;SDS011;47544;52.484;4.658;2024-01-11T00:48:28;27.83;;;15.57;;
61638;SDS011;47544;52.484;4.658;2024-01-11T00:48:41;24.10;;;13.25;;
61638;SDS011;47544;52.484;4.658;2024-01-11T00:48:52;24.00;;;12.30;;
61638;SDS011;47544;52.484;4.658;2024-01-11T00:49:03;28.35;;;14.30;;
61638;SDS011;47544;52.484;4.658;2024-01-11T00:49:14;26.30;;;13.10;;
61638;SDS011;47544;52.484;4.658;2024-01-11T00:49:24;22.48;;;11.27;;
61638;SDS011;47544;52.484;4.658;2024-01-11T00:49:35;21.75;;;10.63;;
61638;SDS011;47544;52.484;4.658;2024-01-11T00:49:46;26.17;;;13.25;;
61638;SDS011;47544;52.484;4.658;2024-01-11T00:49:57;29.45;;;15.68;;
61638;SDS011;47544;52.484;4.658;2024-01-11T00:50:09;30.75;;;17.13;;
61638;SDS011;47544;52.484;4.658;2024-01-11T00:50:20;31.33;;;17.10;;
61638;SDS011;47544;52.484;4.658;2024-01-11T00:50:32;31.88;;;17.05;;
61638;SDS011;47544;52.484;4.658;2024-01-11T00:50:43;31.38;;;16.58;;
61638;SDS011;47544;52.484;4.658;2024-01-11T00:50:54;27.85;;;15.00;;
61638;SDS011;47544;52.484;4.658;2024-01-11T00:51:05;26.90;;;14.27;;
61638;SDS011;47544;52.484;4.658;2024-01-11T00:51:16;28.35;;;15.73;;
61638;SDS011;47544;52.484;4.658;2024-01-11T00:51:27;31.65;;;17.92;;
61638;SDS011;47544;52.484;4.658;2024-01-11T00:51:38;32.37;;;17.83;;
61638;SDS011;47544;52.484;4.658;2024-01-11T00:51:49;31.58;;;16.88;;
61638;SDS011;47544;52.484;4.658;2024-01-11T00:52:00;31.25;;;16.85;;
61638;SDS011;47544;52.484;4.658;2024-01-11T00:52:11;31.25;;;16.63;;
61638;SDS011;47544;52.484;4.658;2024-01-11T00:52:26;30.23;;;15.30;;
61638;SDS011;47544;52.484;4.658;2024-01-11T00:52:37;28.17;;;13.80;;
61638;SDS011;47544;52.484;4.658;2024-01-11T00:52:49;27.42;;;13.90;;
61638;SDS011;47544;52.484;4.658;2024-01-11T00:53:00;28.10;;;14.77;;
61638;SDS011;47544;52.484;4.658;2024-01-11T00:53:11;27.15;;;14.15;;
61638;SDS011;47544;52.484;4.658;2024-01-11T00:53:25;27.13;;;13.63;;
61638;SDS011;47544;52.484;4.658;2024-01-11T00:53:40;29.00;;;15.70;;
61638;SDS011;47544;52.484;4.658;2024-01-11T00:53:52;29.52;;;17.17;;
61638;SDS011;47544;52.484;4.658;2024-01-11T00:54:04;30.27;;;17.45;;
61638;SDS011;47544;52.484;4.658;2024-01-11T00:54:14;30.38;;;17.00;;
61638;SDS011;47544;52.484;4.658;2024-01-11T00:54:25;30.05;;;16.10;;
61638;SDS011;47544;52.484;4.658;2024-01-11T00:54:36;31.50;;;16.33;;
61638;SDS011;47544;52.484;4.658;2024-01-11T00:54:47;31.08;;;16.60;;
61638;SDS011;47544;52.484;4.658;2024-01-11T00:54:58;31.73;;;17.10;;
61638;SDS011;47544;52.484;4.658;2024-01-11T00:55:09;31.55;;;17.20;;
61638;SDS011;47544;52.484;4.658;2024-01-11T00:55:20;31.80;;;17.55;;
61638;SDS011;47544;52.484;4.658;2024-01-11T00:55:31;30.65;;;17.25;;
61638;SDS011;47544;52.484;4.658;2024-01-11T00:55:43;31.52;;;17.27;;
61638;SDS011;47544;52.484;4.658;2024-01-11T00:55:54;31.55;;;17.13;;
61638;SDS011;47544;52.484;4.658;2024-01-11T00:56:05;31.45;;;17.02;;
61638;SDS011;47544;52.484;4.658;2024-01-11T00:56:16;31.67;;;16.50;;
61638;SDS011;47544;52.484;4.658;2024-01-11T00:56:27;31.20;;;15.75;;
61638;SDS011;47544;52.484;4.658;2024-01-11T00:56:38;29.85;;;14.65;;
61638;SDS011;47544;52.484;4.658;2024-01-11T00:56:49;28.45;;;14.48;;
61638;SDS011;47544;52.484;4.658;2024-01-11T00:57:00;28.67;;;15.13;;
61638;SDS011;47544;52.484;4.658;2024-01-11T00:57:11;29.70;;;16.50;;
61638;SDS011;47544;52.484;4.658;2024-01-11T00:57:22;31.27;;;17.05;;
61638;SDS011;47544;52.484;4.658;2024-01-11T00:57:33;32.80;;;17.38;;
61638;SDS011;47544;52.484;4.658;2024-01-11T00:57:45;30.15;;;16.23;;
61638;SDS011;47544;52.484;4.658;2024-01-11T00:57:56;29.50;;;15.40;;
61638;SDS011;47544;52.484;4.658;2024-01-11T00:58:06;30.35;;;15.73;;
61638;SDS011;47544;52.484;4.658;2024-01-11T00:58:17;31.50;;;16.83;;
61638;SDS011;47544;52.484;4.658;2024-01-11T00:58:28;31.38;;;17.63;;
61638;SDS011;47544;52.484;4.658;2024-01-11T00:58:40;31.35;;;18.00;;
61638;SDS011;47544;52.484;4.658;2024-01-11T00:58:52;31.05;;;17.90;;
61638;SDS011;47544;52.484;4.658;2024-01-11T00:59:03;31.05;;;17.13;;
61638;SDS011;47544;52.484;4.658;2024-01-11T00:59:14;31.20;;;16.83;;
61638;SDS011;47544;52.484;4.658;2024-01-11T00:59:26;31.63;;;17.02;;
61638;SDS011;47544;52.484;4.658;2024-01-11T00:59:37;31.20;;;16.75;;
61638;SDS011;47544;52.484;4.658;2024-01-11T00:59:50;30.80;;;17.10;;
61638;SDS011;47544;52.484;4.658;2024-01-11T01:00:01;31.20;;;17.47;;
61638;SDS011;47544;52.484;4.658;2024-01-11T01:00:13;32.78;;;17.95;;
61638;SDS011;47544;52.484;4.658;2024-01-11T01:00:24;32.38;;;18.08;;
61638;SDS011;47544;52.484;4.658;2024-01-11T01:00:35;33.20;;;18.35;;
61638;SDS011;47544;52.484;4.658;2024-01-11T01:00:46;32.60;;;17.92;;
61638;SDS011;47544;52.484;4.658;2024-01-11T01:00:57;31.33;;;17.17;;
61638;SDS011;47544;52.484;4.658;2024-01-11T01:01:09;32.65;;;16.95;;
61638;SDS011;47544;52.484;4.658;2024-01-11T01:01:21;33.30;;;17.45;;
61638;SDS011;47544;52.484;4.658;2024-01-11T01:01:32;33.42;;;17.50;;
61638;SDS011;47544;52.484;4.658;2024-01-11T01:01:46;28.67;;;15.43;;
61638;SDS011;47544;52.484;4.658;2024-01-11T01:01:57;26.15;;;13.60;;
61638;SDS011;47544;52.484;4.658;2024-01-11T01:02:08;27.58;;;14.40;;
61638;SDS011;47544;52.484;4.658;2024-01-11T01:02:19;31.13;;;17.08;;
61638;SDS011;47544;52.484;4.658;2024-01-11T01:02:30;32.92;;;18.05;;
61638;SDS011;47544;52.484;4.658;2024-01-11T01:02:41;32.45;;;17.33;;
61638;SDS011;47544;52.484;4.658;2024-01-11T01:02:53;31.75;;;16.63;;
61638;SDS011;47544;52.484;4.658;2024-01-11T01:03:04;32.78;;;17.70;;
61638;SDS011;47544;52.484;4.658;2024-01-11T01:03:15;33.70;;;18.77;;
61638;SDS011;47544;52.484;4.658;2024-01-11T01:03:27;32.50;;;17.48;;
61638;SDS011;47544;52.484;4.658;2024-01-11T01:03:38;30.23;;;16.40;;
61638;SDS011;47544;52.484;4.658;2024-01-11T01:03:50;29.98;;;15.77;;
61638;SDS011;47544;52.484;4.658;2024-01-11T01:04:01;31.30;;;16.75;;
61638;SDS011;47544;52.484;4.658;2024-01-11T01:04:12;32.13;;;17.65;;
61638;SDS011;47544;52.484;4.658;2024-01-11T01:04:23;33.22;;;17.98;;
61638;SDS011;47544;52.484;4.658;2024-01-11T01:04:37;33.28;;;18.45;;
61638;SDS011;47544;52.484;4.658;2024-01-11T01:04:49;32.42;;;18.48;;
61638;SDS011;47544;52.484;4.658;2024-01-11T01:05:00;31.75;;;18.08;;
61638;SDS011;47544;52.484;4.658;2024-01-11T01:05:11;31.65;;;17.77;;
61638;SDS011;47544;52.484;4.658;2024-01-11T01:05:21;31.80;;;17.77;;
61638;SDS011;47544;52.484;4.658;2024-01-11T01:05:32;31.70;;;17.53;;
61638;SDS011;47544;52.484;4.658;2024-01-11T01:05:43;31.75;;;17.10;;
61638;SDS011;47544;52.484;4.658;2024-01-11T01:05:54;32.40;;;17.48;;